sensor_id;sensor_type;location;lat;lon;timestamp;P1;durP1;ratioP1;P2;durP2;ratioP2
62050;SDS011;48008;51.204;6.766;2022-12-07T00:01:29;45.22;;;24.60;;
62050;SDS011;48008;51.204;6.766;2022-12-07T00:03:58;42.42;;;23.88;;
62050;SDS011;48008;51.204;6.766;2022-12-07T00:06:31;45.30;;;23.88;;
62050;SDS011;48008;51.204;6.766;2022-12-07T00:08:59;49.85;;;25.13;;
62050;SDS011;48008;51.204;6.766;2022-12-07T00:11:26;46.03;;;24.90;;
62050;SDS011;48008;51.204;6.766;2022-12-07T00:13:54;46.35;;;25.25;;
62050;SDS011;48008;51.204;6.766;2022-12-07T00:16:23;45.00;;;23.95;;
62050;SDS011;48008;51.204;6.766;2022-12-07T00:18:52;46.15;;;25.38;;
62050;SDS011;48008;51.204;6.766;2022-12-07T00:21:20;48.25;;;26.55;;
62050;SDS011;48008;51.204;6.766;2022-12-07T00:23:50;54.13;;;26.50;;
62050;SDS011;48008;51.204;6.766;2022-12-07T00:26:18;56.92;;;27.15;;
62050;SDS011;48008;51.204;6.766;2022-12-07T00:28:47;51.88;;;27.33;;
62050;SDS011;48008;51.204;6.766;2022-12-07T00:31:16;51.55;;;27.88;;
62050;SDS011;48008;51.204;6.766;2022-12-07T00:33:44;55.40;;;28.33;;
62050;SDS011;48008;51.204;6.766;2022-12-07T00:36:13;55.17;;;28.77;;
62050;SDS011;48008;51.204;6.766;2022-12-07T00:38:43;57.10;;;29.17;;
62050;SDS011;48008;51.204;6.766;2022-12-07T00:41:10;52.55;;;27.65;;
62050;SDS011;48008;51.204;6.766;2022-12-07T00:43:40;57.10;;;29.05;;
62050;SDS011;48008;51.204;6.766;2022-12-07T00:46:07;54.90;;;29.05;;
62050;SDS011;48008;51.204;6.766;2022-12-07T00:48:34;56.17;;;29.33;;
62050;SDS011;48008;51.204;6.766;2022-12-07T00:51:01;55.53;;;27.10;;
62050;SDS011;48008;51.204;6.766;2022-12-07T00:53:28;51.13;;;27.00;;
62050;SDS011;48008;51.204;6.766;2022-12-07T00:55:55;51.38;;;28.00;;
62050;SDS011;48008;51.204;6.766;2022-12-07T00:58:22;54.92;;;28.95;;
62050;SDS011;48008;51.204;6.766;2022-12-07T01:00:50;50.20;;;27.85;;
62050;SDS011;48008;51.204;6.766;2022-12-07T01:03:16;53.50;;;26.33;;
62050;SDS011;48008;51.204;6.766;2022-12-07T01:05:51;47.53;;;25.48;;
62050;SDS011;48008;51.204;6.766;2022-12-07T01:08:19;55.28;;;27.38;;
62050;SDS011;48008;51.204;6.766;2022-12-07T01:10:47;45.92;;;26.98;;
62050;SDS011;48008;51.204;6.766;2022-12-07T01:13:14;52.80;;;26.33;;
62050;SDS011;48008;51.204;6.766;2022-12-07T01:15:42;53.83;;;27.83;;
62050;SDS011;48008;51.204;6.766;2022-12-07T01:18:10;47.83;;;27.15;;
62050;SDS011;48008;51.204;6.766;2022-12-07T01:20:37;53.00;;;27.13;;
62050;SDS011;48008;51.204;6.766;2022-12-07T01:23:04;48.60;;;27.05;;
62050;SDS011;48008;51.204;6.766;2022-12-07T01:25:31;45.45;;;26.38;;
62050;SDS011;48008;51.204;6.766;2022-12-07T01:27:57;46.17;;;25.52;;
62050;SDS011;48008;51.204;6.766;2022-12-07T01:30:24;48.58;;;26.33;;
62050;SDS011;48008;51.204;6.766;2022-12-07T01:32:51;47.80;;;26.38;;
62050;SDS011;48008;51.204;6.766;2022-12-07T01:35:17;53.45;;;25.83;;
62050;SDS011;48008;51.204;6.766;2022-12-07T01:37:45;44.90;;;24.77;;
62050;SDS011;48008;51.204;6.766;2022-12-07T01:40:11;51.30;;;26.27;;
62050;SDS011;48008;51.204;6.766;2022-12-07T01:42:38;46.92;;;24.88;;
62050;SDS011;48008;51.204;6.766;2022-12-07T01:45:37;48.80;;;25.55;;
62050;SDS011;48008;51.204;6.766;2022-12-07T01:48:07;56.75;;;26.23;;
62050;SDS011;48008;51.204;6.766;2022-12-07T01:50:37;49.25;;;26.92;;
62050;SDS011;48008;51.204;6.766;2022-12-07T01:53:06;48.65;;;25.33;;
62050;SDS011;48008;51.204;6.766;2022-12-07T01:55:37;50.72;;;27.60;;
62050;SDS011;48008;51.204;6.766;2022-12-07T01:58:06;46.35;;;25.75;;
62050;SDS011;48008;51.204;6.766;2022-12-07T02:00:33;47.60;;;27.05;;
62050;SDS011;48008;51.204;6.766;2022-12-07T02:03:03;50.47;;;26.35;;
62050;SDS011;48008;51.204;6.766;2022-12-07T02:05:35;50.17;;;26.15;;
62050;SDS011;48008;51.204;6.766;2022-12-07T02:08:04;45.08;;;24.77;;
62050;SDS011;48008;51.204;6.766;2022-12-07T02:10:32;42.33;;;25.33;;
62050;SDS011;48008;51.204;6.766;2022-12-07T02:13:15;46.97;;;25.80;;
62050;SDS011;48008;51.204;6.766;2022-12-07T02:21:52;44.55;;;24.38;;
62050;SDS011;48008;51.204;6.766;2022-12-07T02:24:44;47.70;;;25.40;;
62050;SDS011;48008;51.204;6.766;2022-12-07T02:27:39;41.90;;;23.83;;
62050;SDS011;48008;51.204;6.766;2022-12-07T02:30:20;47.63;;;26.25;;
62050;SDS011;48008;51.204;6.766;2022-12-07T02:32:51;47.03;;;25.77;;
62050;SDS011;48008;51.204;6.766;2022-12-07T02:35:28;47.05;;;26.95;;
62050;SDS011;48008;51.204;6.766;2022-12-07T02:38:17;52.35;;;26.15;;
62050;SDS011;48008;51.204;6.766;2022-12-07T02:40:55;51.75;;;26.08;;
62050;SDS011;48008;51.204;6.766;2022-12-07T02:43:27;48.08;;;25.88;;
62050;SDS011;48008;51.204;6.766;2022-12-07T02:45:58;46.78;;;26.75;;
62050;SDS011;48008;51.204;6.766;2022-12-07T02:48:31;47.33;;;26.92;;
62050;SDS011;48008;51.204;6.766;2022-12-07T02:50:59;50.60;;;26.42;;
62050;SDS011;48008;51.204;6.766;2022-12-07T02:53:35;49.45;;;26.65;;
62050;SDS011;48008;51.204;6.766;2022-12-07T03:01:42;50.10;;;27.38;;
62050;SDS011;48008;51.204;6.766;2022-12-07T03:10:25;52.45;;;25.77;;
62050;SDS011;48008;51.204;6.766;2022-12-07T03:13:19;46.70;;;25.58;;
62050;SDS011;48008;51.204;6.766;2022-12-07T03:19:03;42.25;;;25.30;;
62050;SDS011;48008;51.204;6.766;2022-12-07T03:21:37;65.43;;;25.48;;
62050;SDS011;48008;51.204;6.766;2022-12-07T03:26:38;42.67;;;22.80;;
62050;SDS011;48008;51.204;6.766;2022-12-07T03:29:12;45.50;;;25.55;;
62050;SDS011;48008;51.204;6.766;2022-12-07T03:31:47;40.00;;;23.85;;
62050;SDS011;48008;51.204;6.766;2022-12-07T03:34:19;43.40;;;24.42;;
62050;SDS011;48008;51.204;6.766;2022-12-07T03:36:54;44.63;;;25.38;;
62050;SDS011;48008;51.204;6.766;2022-12-07T03:42:30;41.78;;;23.52;;
62050;SDS011;48008;51.204;6.766;2022-12-07T03:44:59;45.70;;;24.48;;
62050;SDS011;48008;51.204;6.766;2022-12-07T03:47:31;46.28;;;25.08;;
62050;SDS011;48008;51.204;6.766;2022-12-07T03:50:04;44.67;;;25.00;;
62050;SDS011;48008;51.204;6.766;2022-12-07T03:52:40;46.38;;;24.05;;
62050;SDS011;48008;51.204;6.766;2022-12-07T03:55:28;42.58;;;23.70;;
62050;SDS011;48008;51.204;6.766;2022-12-07T03:57:59;43.97;;;23.92;;
62050;SDS011;48008;51.204;6.766;2022-12-07T04:00:28;40.87;;;23.47;;
62050;SDS011;48008;51.204;6.766;2022-12-07T04:02:55;46.55;;;24.65;;
62050;SDS011;48008;51.204;6.766;2022-12-07T04:05:22;41.78;;;23.85;;
62050;SDS011;48008;51.204;6.766;2022-12-07T04:07:49;42.58;;;23.23;;
62050;SDS011;48008;51.204;6.766;2022-12-07T04:10:16;39.30;;;23.00;;
62050;SDS011;48008;51.204;6.766;2022-12-07T04:12:42;42.40;;;23.85;;
62050;SDS011;48008;51.204;6.766;2022-12-07T04:15:09;47.30;;;24.08;;
62050;SDS011;48008;51.204;6.766;2022-12-07T04:17:36;43.90;;;23.33;;
62050;SDS011;48008;51.204;6.766;2022-12-07T04:20:03;41.10;;;22.90;;
62050;SDS011;48008;51.204;6.766;2022-12-07T04:22:31;49.53;;;22.65;;
62050;SDS011;48008;51.204;6.766;2022-12-07T04:24:58;44.28;;;23.67;;
62050;SDS011;48008;51.204;6.766;2022-12-07T04:27:25;41.65;;;22.38;;
62050;SDS011;48008;51.204;6.766;2022-12-07T04:29:53;37.88;;;20.80;;
62050;SDS011;48008;51.204;6.766;2022-12-07T04:32:19;42.33;;;22.48;;
62050;SDS011;48008;51.204;6.766;2022-12-07T04:34:46;40.55;;;21.83;;
62050;SDS011;48008;51.204;6.766;2022-12-07T04:37:15;43.58;;;20.90;;
62050;SDS011;48008;51.204;6.766;2022-12-07T04:39:45;41.88;;;21.58;;
62050;SDS011;48008;51.204;6.766;2022-12-07T04:42:12;36.97;;;20.73;;
62050;SDS011;48008;51.204;6.766;2022-12-07T04:44:39;34.70;;;20.52;;
62050;SDS011;48008;51.204;6.766;2022-12-07T04:47:06;39.42;;;20.88;;
62050;SDS011;48008;51.204;6.766;2022-12-07T04:49:33;39.90;;;21.33;;
62050;SDS011;48008;51.204;6.766;2022-12-07T04:51:59;36.67;;;20.80;;
62050;SDS011;48008;51.204;6.766;2022-12-07T04:54:26;37.38;;;20.58;;
62050;SDS011;48008;51.204;6.766;2022-12-07T04:56:52;36.60;;;19.92;;
62050;SDS011;48008;51.204;6.766;2022-12-07T04:59:19;39.08;;;20.25;;
62050;SDS011;48008;51.204;6.766;2022-12-07T05:01:46;38.67;;;19.17;;
62050;SDS011;48008;51.204;6.766;2022-12-07T05:04:13;34.45;;;19.42;;
62050;SDS011;48008;51.204;6.766;2022-12-07T05:06:40;36.47;;;18.02;;
62050;SDS011;48008;51.204;6.766;2022-12-07T05:09:06;40.10;;;19.33;;
62050;SDS011;48008;51.204;6.766;2022-12-07T05:11:33;37.90;;;18.15;;
62050;SDS011;48008;51.204;6.766;2022-12-07T05:14:10;32.22;;;18.83;;
62050;SDS011;48008;51.204;6.766;2022-12-07T05:16:42;33.50;;;18.77;;
62050;SDS011;48008;51.204;6.766;2022-12-07T05:19:10;33.55;;;18.10;;
62050;SDS011;48008;51.204;6.766;2022-12-07T05:21:37;35.88;;;19.58;;
62050;SDS011;48008;51.204;6.766;2022-12-07T05:24:05;39.65;;;19.38;;
62050;SDS011;48008;51.204;6.766;2022-12-07T05:26:33;36.95;;;17.88;;
62050;SDS011;48008;51.204;6.766;2022-12-07T05:29:00;40.88;;;18.85;;
62050;SDS011;48008;51.204;6.766;2022-12-07T05:31:27;35.80;;;17.90;;
62050;SDS011;48008;51.204;6.766;2022-12-07T05:33:54;46.20;;;16.65;;
62050;SDS011;48008;51.204;6.766;2022-12-07T05:36:21;31.60;;;16.77;;
62050;SDS011;48008;51.204;6.766;2022-12-07T05:38:48;35.75;;;16.75;;
62050;SDS011;48008;51.204;6.766;2022-12-07T05:41:17;36.25;;;16.25;;
62050;SDS011;48008;51.204;6.766;2022-12-07T05:44:05;34.92;;;16.50;;
62050;SDS011;48008;51.204;6.766;2022-12-07T05:46:32;29.15;;;15.93;;
62050;SDS011;48008;51.204;6.766;2022-12-07T05:48:59;30.42;;;16.40;;
62050;SDS011;48008;51.204;6.766;2022-12-07T05:51:27;36.30;;;14.95;;
62050;SDS011;48008;51.204;6.766;2022-12-07T05:53:54;39.10;;;15.48;;
62050;SDS011;48008;51.204;6.766;2022-12-07T05:56:21;38.08;;;15.60;;
62050;SDS011;48008;51.204;6.766;2022-12-07T05:58:48;31.58;;;15.50;;
62050;SDS011;48008;51.204;6.766;2022-12-07T06:01:34;41.00;;;15.75;;
62050;SDS011;48008;51.204;6.766;2022-12-07T06:04:01;32.25;;;16.10;;
62050;SDS011;48008;51.204;6.766;2022-12-07T06:06:28;34.97;;;15.95;;
62050;SDS011;48008;51.204;6.766;2022-12-07T06:08:55;34.42;;;15.38;;
62050;SDS011;48008;51.204;6.766;2022-12-07T06:11:21;54.00;;;16.23;;
62050;SDS011;48008;51.204;6.766;2022-12-07T06:14:08;33.25;;;15.13;;
62050;SDS011;48008;51.204;6.766;2022-12-07T06:16:35;28.98;;;15.30;;
62050;SDS011;48008;51.204;6.766;2022-12-07T06:19:01;33.90;;;15.70;;
62050;SDS011;48008;51.204;6.766;2022-12-07T06:21:28;32.00;;;14.73;;
62050;SDS011;48008;51.204;6.766;2022-12-07T06:23:55;37.95;;;16.10;;
62050;SDS011;48008;51.204;6.766;2022-12-07T06:26:22;33.88;;;16.33;;
62050;SDS011;48008;51.204;6.766;2022-12-07T06:28:49;30.33;;;14.50;;
62050;SDS011;48008;51.204;6.766;2022-12-07T06:31:16;30.10;;;15.13;;
62050;SDS011;48008;51.204;6.766;2022-12-07T06:33:42;35.25;;;15.95;;
62050;SDS011;48008;51.204;6.766;2022-12-07T06:36:09;30.02;;;15.35;;
62050;SDS011;48008;51.204;6.766;2022-12-07T06:38:36;32.78;;;16.20;;
62050;SDS011;48008;51.204;6.766;2022-12-07T06:41:03;32.20;;;16.60;;
62050;SDS011;48008;51.204;6.766;2022-12-07T06:43:32;34.35;;;17.00;;
62050;SDS011;48008;51.204;6.766;2022-12-07T06:45:59;31.67;;;16.58;;
62050;SDS011;48008;51.204;6.766;2022-12-07T06:48:25;30.58;;;17.05;;
62050;SDS011;48008;51.204;6.766;2022-12-07T06:50:52;30.77;;;16.83;;
62050;SDS011;48008;51.204;6.766;2022-12-07T06:53:20;38.55;;;17.45;;
62050;SDS011;48008;51.204;6.766;2022-12-07T06:55:47;33.78;;;16.65;;
62050;SDS011;48008;51.204;6.766;2022-12-07T06:58:13;31.85;;;16.70;;
62050;SDS011;48008;51.204;6.766;2022-12-07T07:00:40;29.85;;;15.98;;
62050;SDS011;48008;51.204;6.766;2022-12-07T07:03:07;32.60;;;16.60;;
62050;SDS011;48008;51.204;6.766;2022-12-07T07:05:34;32.67;;;16.13;;
62050;SDS011;48008;51.204;6.766;2022-12-07T07:08:01;44.35;;;16.05;;
62050;SDS011;48008;51.204;6.766;2022-12-07T07:10:48;27.48;;;15.32;;
62050;SDS011;48008;51.204;6.766;2022-12-07T07:13:16;27.80;;;15.15;;
62050;SDS011;48008;51.204;6.766;2022-12-07T07:15:42;27.00;;;14.77;;
62050;SDS011;48008;51.204;6.766;2022-12-07T07:18:09;30.75;;;14.90;;
62050;SDS011;48008;51.204;6.766;2022-12-07T07:20:36;28.33;;;14.93;;
62050;SDS011;48008;51.204;6.766;2022-12-07T07:23:04;27.58;;;15.05;;
62050;SDS011;48008;51.204;6.766;2022-12-07T07:25:31;35.50;;;15.55;;
62050;SDS011;48008;51.204;6.766;2022-12-07T07:27:58;30.15;;;14.55;;
62050;SDS011;48008;51.204;6.766;2022-12-07T07:30:25;32.42;;;15.20;;
62050;SDS011;48008;51.204;6.766;2022-12-07T07:33:00;27.35;;;14.88;;
62050;SDS011;48008;51.204;6.766;2022-12-07T07:35:28;31.58;;;14.50;;
62050;SDS011;48008;51.204;6.766;2022-12-07T07:37:56;26.15;;;15.23;;
62050;SDS011;48008;51.204;6.766;2022-12-07T07:40:23;27.48;;;14.90;;
62050;SDS011;48008;51.204;6.766;2022-12-07T07:42:51;31.23;;;15.13;;
62050;SDS011;48008;51.204;6.766;2022-12-07T07:45:20;31.85;;;13.82;;
62050;SDS011;48008;51.204;6.766;2022-12-07T07:47:48;23.73;;;13.50;;
62050;SDS011;48008;51.204;6.766;2022-12-07T07:50:16;30.88;;;14.10;;
62050;SDS011;48008;51.204;6.766;2022-12-07T07:52:43;28.55;;;13.27;;
62050;SDS011;48008;51.204;6.766;2022-12-07T07:55:10;31.17;;;13.25;;
62050;SDS011;48008;51.204;6.766;2022-12-07T07:57:38;25.65;;;12.05;;
62050;SDS011;48008;51.204;6.766;2022-12-07T08:00:07;27.52;;;12.15;;
62050;SDS011;48008;51.204;6.766;2022-12-07T08:02:39;27.88;;;12.55;;
62050;SDS011;48008;51.204;6.766;2022-12-07T08:05:07;30.77;;;13.75;;
62050;SDS011;48008;51.204;6.766;2022-12-07T08:07:33;25.90;;;11.98;;
62050;SDS011;48008;51.204;6.766;2022-12-07T08:10:00;24.15;;;11.50;;
62050;SDS011;48008;51.204;6.766;2022-12-07T08:12:27;25.02;;;11.73;;
62050;SDS011;48008;51.204;6.766;2022-12-07T08:14:54;30.77;;;12.32;;
62050;SDS011;48008;51.204;6.766;2022-12-07T08:17:20;30.38;;;11.93;;
62050;SDS011;48008;51.204;6.766;2022-12-07T08:19:47;26.15;;;11.95;;
62050;SDS011;48008;51.204;6.766;2022-12-07T08:22:14;22.35;;;12.20;;
62050;SDS011;48008;51.204;6.766;2022-12-07T08:24:40;26.17;;;11.85;;
62050;SDS011;48008;51.204;6.766;2022-12-07T08:27:07;25.83;;;12.68;;
62050;SDS011;48008;51.204;6.766;2022-12-07T08:29:34;22.10;;;11.65;;
62050;SDS011;48008;51.204;6.766;2022-12-07T08:32:01;26.70;;;11.30;;
62050;SDS011;48008;51.204;6.766;2022-12-07T08:34:30;27.92;;;11.93;;
62050;SDS011;48008;51.204;6.766;2022-12-07T08:36:57;24.95;;;12.05;;
62050;SDS011;48008;51.204;6.766;2022-12-07T08:39:24;21.85;;;10.85;;
62050;SDS011;48008;51.204;6.766;2022-12-07T08:41:58;31.15;;;12.13;;
62050;SDS011;48008;51.204;6.766;2022-12-07T08:44:25;27.67;;;12.20;;
62050;SDS011;48008;51.204;6.766;2022-12-07T08:46:53;24.13;;;11.98;;
62050;SDS011;48008;51.204;6.766;2022-12-07T08:49:31;29.35;;;12.20;;
62050;SDS011;48008;51.204;6.766;2022-12-07T08:52:03;23.33;;;12.23;;
62050;SDS011;48008;51.204;6.766;2022-12-07T08:54:31;27.70;;;12.60;;
62050;SDS011;48008;51.204;6.766;2022-12-07T08:57:02;28.60;;;13.10;;
62050;SDS011;48008;51.204;6.766;2022-12-07T08:59:29;30.98;;;12.77;;
62050;SDS011;48008;51.204;6.766;2022-12-07T09:01:56;26.35;;;12.90;;
62050;SDS011;48008;51.204;6.766;2022-12-07T09:04:23;25.17;;;12.38;;
62050;SDS011;48008;51.204;6.766;2022-12-07T09:06:50;24.75;;;12.48;;
62050;SDS011;48008;51.204;6.766;2022-12-07T09:09:17;22.45;;;11.85;;
62050;SDS011;48008;51.204;6.766;2022-12-07T09:11:43;22.02;;;12.15;;
62050;SDS011;48008;51.204;6.766;2022-12-07T09:14:11;28.95;;;13.02;;
62050;SDS011;48008;51.204;6.766;2022-12-07T09:16:39;22.60;;;11.63;;
62050;SDS011;48008;51.204;6.766;2022-12-07T09:19:06;25.45;;;12.18;;
62050;SDS011;48008;51.204;6.766;2022-12-07T09:21:34;31.50;;;13.02;;
62050;SDS011;48008;51.204;6.766;2022-12-07T09:24:00;26.20;;;11.73;;
62050;SDS011;48008;51.204;6.766;2022-12-07T09:26:27;26.27;;;12.32;;
62050;SDS011;48008;51.204;6.766;2022-12-07T09:28:54;25.50;;;11.55;;
62050;SDS011;48008;51.204;6.766;2022-12-07T09:31:20;27.33;;;12.65;;
62050;SDS011;48008;51.204;6.766;2022-12-07T09:33:52;26.15;;;11.30;;
62050;SDS011;48008;51.204;6.766;2022-12-07T09:36:21;23.08;;;11.25;;
62050;SDS011;48008;51.204;6.766;2022-12-07T09:38:48;32.20;;;11.38;;
62050;SDS011;48008;51.204;6.766;2022-12-07T09:41:14;23.23;;;10.85;;
62050;SDS011;48008;51.204;6.766;2022-12-07T09:43:41;26.75;;;11.55;;
62050;SDS011;48008;51.204;6.766;2022-12-07T09:46:10;22.42;;;10.27;;
62050;SDS011;48008;51.204;6.766;2022-12-07T09:48:41;27.20;;;11.45;;
62050;SDS011;48008;51.204;6.766;2022-12-07T09:51:13;24.00;;;10.52;;
62050;SDS011;48008;51.204;6.766;2022-12-07T09:53:46;29.38;;;11.30;;
62050;SDS011;48008;51.204;6.766;2022-12-07T09:56:15;27.20;;;10.85;;
62050;SDS011;48008;51.204;6.766;2022-12-07T09:58:44;27.58;;;10.15;;
62050;SDS011;48008;51.204;6.766;2022-12-07T10:01:14;21.77;;;11.10;;
62050;SDS011;48008;51.204;6.766;2022-12-07T10:03:45;28.90;;;11.50;;
62050;SDS011;48008;51.204;6.766;2022-12-07T10:06:16;23.65;;;10.27;;
62050;SDS011;48008;51.204;6.766;2022-12-07T10:08:43;23.55;;;10.88;;
62050;SDS011;48008;51.204;6.766;2022-12-07T10:11:10;24.23;;;10.82;;
62050;SDS011;48008;51.204;6.766;2022-12-07T10:13:38;27.90;;;12.30;;
62050;SDS011;48008;51.204;6.766;2022-12-07T10:16:39;27.88;;;10.13;;
62050;SDS011;48008;51.204;6.766;2022-12-07T10:18:58;23.27;;;9.77;;
62050;SDS011;48008;51.204;6.766;2022-12-07T10:22:16;29.10;;;9.90;;
62050;SDS011;48008;51.204;6.766;2022-12-07T10:24:45;26.00;;;10.70;;
62050;SDS011;48008;51.204;6.766;2022-12-07T10:27:17;21.48;;;10.00;;
62050;SDS011;48008;51.204;6.766;2022-12-07T10:29:48;24.58;;;10.40;;
62050;SDS011;48008;51.204;6.766;2022-12-07T10:35:15;28.52;;;10.38;;
62050;SDS011;48008;51.204;6.766;2022-12-07T10:37:50;20.95;;;9.93;;
62050;SDS011;48008;51.204;6.766;2022-12-07T10:40:29;25.08;;;10.23;;
62050;SDS011;48008;51.204;6.766;2022-12-07T10:43:02;24.77;;;11.07;;
62050;SDS011;48008;51.204;6.766;2022-12-07T10:45:31;24.88;;;10.05;;
62050;SDS011;48008;51.204;6.766;2022-12-07T10:51:12;23.35;;;9.18;;
62050;SDS011;48008;51.204;6.766;2022-12-07T10:56:52;30.10;;;9.60;;
62050;SDS011;48008;51.204;6.766;2022-12-07T11:02:32;19.25;;;7.35;;
62050;SDS011;48008;51.204;6.766;2022-12-07T11:05:30;18.58;;;7.85;;
62050;SDS011;48008;51.204;6.766;2022-12-07T11:08:15;18.55;;;7.10;;
62050;SDS011;48008;51.204;6.766;2022-12-07T11:11:35;19.83;;;6.30;;
62050;SDS011;48008;51.204;6.766;2022-12-07T11:14:10;19.95;;;6.95;;
62050;SDS011;48008;51.204;6.766;2022-12-07T11:17:04;19.75;;;7.05;;
62050;SDS011;48008;51.204;6.766;2022-12-07T11:19:46;18.63;;;7.00;;
62050;SDS011;48008;51.204;6.766;2022-12-07T11:22:33;21.13;;;7.07;;
62050;SDS011;48008;51.204;6.766;2022-12-07T11:28:03;21.95;;;6.47;;
62050;SDS011;48008;51.204;6.766;2022-12-07T11:30:54;22.65;;;7.03;;
62050;SDS011;48008;51.204;6.766;2022-12-07T11:33:33;18.23;;;6.80;;
62050;SDS011;48008;51.204;6.766;2022-12-07T11:36:42;23.88;;;6.93;;
62050;SDS011;48008;51.204;6.766;2022-12-07T11:39:04;18.42;;;6.63;;
62050;SDS011;48008;51.204;6.766;2022-12-07T11:41:55;17.88;;;6.68;;
62050;SDS011;48008;51.204;6.766;2022-12-07T11:44:36;19.35;;;6.63;;
62050;SDS011;48008;51.204;6.766;2022-12-07T11:47:30;18.83;;;6.60;;
62050;SDS011;48008;51.204;6.766;2022-12-07T11:56:12;18.83;;;7.55;;
62050;SDS011;48008;51.204;6.766;2022-12-07T11:58:45;18.05;;;7.88;;
62050;SDS011;48008;51.204;6.766;2022-12-07T12:04:29;25.02;;;9.80;;
62050;SDS011;48008;51.204;6.766;2022-12-07T12:07:02;22.42;;;9.15;;
62050;SDS011;48008;51.204;6.766;2022-12-07T12:10:00;25.80;;;9.75;;
62050;SDS011;48008;51.204;6.766;2022-12-07T12:16:01;21.90;;;9.98;;
62050;SDS011;48008;51.204;6.766;2022-12-07T12:21:56;28.35;;;7.93;;
62050;SDS011;48008;51.204;6.766;2022-12-07T12:24:32;29.40;;;7.00;;
62050;SDS011;48008;51.204;6.766;2022-12-07T12:27:04;21.48;;;7.60;;
62050;SDS011;48008;51.204;6.766;2022-12-07T12:29:35;14.93;;;6.03;;
62050;SDS011;48008;51.204;6.766;2022-12-07T12:34:57;19.98;;;6.80;;
62050;SDS011;48008;51.204;6.766;2022-12-07T12:37:38;17.90;;;6.05;;
62050;SDS011;48008;51.204;6.766;2022-12-07T12:42:52;28.58;;;10.45;;
62050;SDS011;48008;51.204;6.766;2022-12-07T12:45:22;22.55;;;7.28;;
62050;SDS011;48008;51.204;6.766;2022-12-07T12:50:36;23.33;;;5.82;;
62050;SDS011;48008;51.204;6.766;2022-12-07T12:53:20;28.13;;;6.68;;
62050;SDS011;48008;51.204;6.766;2022-12-07T12:58:30;20.27;;;6.00;;
62050;SDS011;48008;51.204;6.766;2022-12-07T13:07:09;15.52;;;6.05;;
62050;SDS011;48008;51.204;6.766;2022-12-07T13:09:38;15.55;;;6.35;;
62050;SDS011;48008;51.204;6.766;2022-12-07T13:12:12;15.40;;;6.35;;
62050;SDS011;48008;51.204;6.766;2022-12-07T13:14:42;20.48;;;6.30;;
62050;SDS011;48008;51.204;6.766;2022-12-07T13:20:09;20.40;;;5.78;;
62050;SDS011;48008;51.204;6.766;2022-12-07T13:22:42;20.33;;;6.28;;
62050;SDS011;48008;51.204;6.766;2022-12-07T13:25:12;18.67;;;6.28;;
62050;SDS011;48008;51.204;6.766;2022-12-07T13:28:08;25.35;;;6.25;;
62050;SDS011;48008;51.204;6.766;2022-12-07T13:30:43;16.00;;;6.18;;
62050;SDS011;48008;51.204;6.766;2022-12-07T13:33:17;18.48;;;5.90;;
62050;SDS011;48008;51.204;6.766;2022-12-07T13:35:45;21.20;;;5.50;;
62050;SDS011;48008;51.204;6.766;2022-12-07T13:38:47;21.50;;;6.07;;
62050;SDS011;48008;51.204;6.766;2022-12-07T13:41:16;23.38;;;5.68;;
62050;SDS011;48008;51.204;6.766;2022-12-07T13:43:46;17.00;;;5.90;;
62050;SDS011;48008;51.204;6.766;2022-12-07T13:46:16;37.63;;;6.07;;
62050;SDS011;48008;51.204;6.766;2022-12-07T13:48:47;17.70;;;5.85;;
62050;SDS011;48008;51.204;6.766;2022-12-07T13:51:17;20.40;;;5.00;;
62050;SDS011;48008;51.204;6.766;2022-12-07T13:53:54;37.42;;;5.55;;
62050;SDS011;48008;51.204;6.766;2022-12-07T13:56:35;23.05;;;5.57;;
62050;SDS011;48008;51.204;6.766;2022-12-07T13:59:02;19.35;;;4.68;;
62050;SDS011;48008;51.204;6.766;2022-12-07T14:01:31;18.48;;;4.35;;
62050;SDS011;48008;51.204;6.766;2022-12-07T14:06:55;23.77;;;4.97;;
62050;SDS011;48008;51.204;6.766;2022-12-07T14:09:23;21.70;;;4.90;;
62050;SDS011;48008;51.204;6.766;2022-12-07T14:11:52;15.57;;;4.38;;
62050;SDS011;48008;51.204;6.766;2022-12-07T14:14:29;16.17;;;4.30;;
62050;SDS011;48008;51.204;6.766;2022-12-07T14:17:08;19.35;;;4.97;;
62050;SDS011;48008;51.204;6.766;2022-12-07T14:19:42;18.77;;;5.18;;
62050;SDS011;48008;51.204;6.766;2022-12-07T14:22:24;15.68;;;5.00;;
62050;SDS011;48008;51.204;6.766;2022-12-07T14:25:14;20.10;;;6.15;;
62050;SDS011;48008;51.204;6.766;2022-12-07T14:27:48;17.42;;;5.40;;
62050;SDS011;48008;51.204;6.766;2022-12-07T14:30:17;20.52;;;5.38;;
62050;SDS011;48008;51.204;6.766;2022-12-07T14:32:45;25.27;;;5.35;;
62050;SDS011;48008;51.204;6.766;2022-12-07T14:35:16;18.85;;;5.55;;
62050;SDS011;48008;51.204;6.766;2022-12-07T14:37:45;18.48;;;5.63;;
62050;SDS011;48008;51.204;6.766;2022-12-07T14:40:14;21.05;;;5.95;;
62050;SDS011;48008;51.204;6.766;2022-12-07T14:42:43;25.40;;;7.00;;
62050;SDS011;48008;51.204;6.766;2022-12-07T14:45:13;19.10;;;7.28;;
62050;SDS011;48008;51.204;6.766;2022-12-07T14:47:42;20.60;;;6.78;;
62050;SDS011;48008;51.204;6.766;2022-12-07T14:50:29;24.40;;;8.07;;
62050;SDS011;48008;51.204;6.766;2022-12-07T14:52:56;22.90;;;8.20;;
62050;SDS011;48008;51.204;6.766;2022-12-07T14:55:46;20.77;;;8.25;;
62050;SDS011;48008;51.204;6.766;2022-12-07T14:58:14;22.13;;;9.13;;
62050;SDS011;48008;51.204;6.766;2022-12-07T15:00:42;18.70;;;7.90;;
62050;SDS011;48008;51.204;6.766;2022-12-07T15:03:10;23.65;;;7.72;;
62050;SDS011;48008;51.204;6.766;2022-12-07T15:05:37;19.42;;;7.70;;
62050;SDS011;48008;51.204;6.766;2022-12-07T15:08:04;27.02;;;7.70;;
62050;SDS011;48008;51.204;6.766;2022-12-07T15:10:32;23.48;;;7.50;;
62050;SDS011;48008;51.204;6.766;2022-12-07T15:13:01;26.73;;;6.50;;
62050;SDS011;48008;51.204;6.766;2022-12-07T15:15:49;20.60;;;6.50;;
62050;SDS011;48008;51.204;6.766;2022-12-07T15:18:18;20.85;;;6.30;;
62050;SDS011;48008;51.204;6.766;2022-12-07T15:20:45;19.75;;;6.53;;
62050;SDS011;48008;51.204;6.766;2022-12-07T15:23:13;23.38;;;6.68;;
62050;SDS011;48008;51.204;6.766;2022-12-07T15:25:41;21.38;;;7.22;;
62050;SDS011;48008;51.204;6.766;2022-12-07T15:28:08;21.13;;;6.72;;
62050;SDS011;48008;51.204;6.766;2022-12-07T15:30:37;22.45;;;7.20;;
62050;SDS011;48008;51.204;6.766;2022-12-07T15:33:04;20.98;;;7.50;;
62050;SDS011;48008;51.204;6.766;2022-12-07T15:35:31;26.98;;;8.20;;
62050;SDS011;48008;51.204;6.766;2022-12-07T15:37:58;17.05;;;7.65;;
62050;SDS011;48008;51.204;6.766;2022-12-07T15:40:24;20.52;;;8.23;;
62050;SDS011;48008;51.204;6.766;2022-12-07T15:42:51;25.52;;;9.00;;
62050;SDS011;48008;51.204;6.766;2022-12-07T15:45:18;21.50;;;9.27;;
62050;SDS011;48008;51.204;6.766;2022-12-07T15:47:45;21.20;;;8.90;;
62050;SDS011;48008;51.204;6.766;2022-12-07T15:50:31;25.65;;;9.02;;
62050;SDS011;48008;51.204;6.766;2022-12-07T15:52:58;19.60;;;8.45;;
62050;SDS011;48008;51.204;6.766;2022-12-07T15:55:25;26.80;;;9.57;;
62050;SDS011;48008;51.204;6.766;2022-12-07T15:57:51;25.38;;;9.13;;
62050;SDS011;48008;51.204;6.766;2022-12-07T16:00:19;27.50;;;9.55;;
62050;SDS011;48008;51.204;6.766;2022-12-07T16:02:46;20.48;;;8.32;;
62050;SDS011;48008;51.204;6.766;2022-12-07T16:05:12;21.60;;;8.98;;
62050;SDS011;48008;51.204;6.766;2022-12-07T16:07:39;19.67;;;8.25;;
62050;SDS011;48008;51.204;6.766;2022-12-07T16:10:06;19.83;;;8.50;;